Time;durP1;ratioP1;P1;durP2;ratioP2;P2;SDS_P1;SDS_P2;PMS_P1;PMS_P2;Temp;Humidity;BMP_temperature;BMP_pressure;BME280_temperature;BME280_humidity;BME280_pressure;Samples;Min_cycle;Max_cycle;Signal;HPM_P1;HPM_P2
2021/12/21 00:00:57;;;;;;;4.73;2.50;;;;;;;;;;5058661;28;20052;-63
2021/12/21 00:03:24;;;;;;;6.32;3.28;;;;;;;;;;5050737;28;20044;-63
2021/12/21 00:05:52;;;;;;;10.23;3.50;;;;;;;;;;5052062;28;20045;-63
2021/12/21 00:08:19;;;;;;;7.30;3.80;;;;;;;;;;5051570;28;20139;-63
2021/12/21 00:11:05;;;;;;;8.73;3.50;;;;;;;;;;5050537;28;20481;-63
2021/12/21 00:13:53;;;;;;;7.77;3.43;;;;;;;;;;5055080;28;20462;-63
2021/12/21 00:16:44;;;;;;;5.47;3.27;;;;;;;;;;5044155;28;20135;-63
2021/12/21 00:21:53;;;;;;;5.03;2.33;;;;;;;;;;5061366;28;20136;-63
2021/12/21 00:24:32;;;;;;;5.43;2.77;;;;;;;;;;5057127;28;20500;-63
2021/12/21 00:27:00;;;;;;;4.23;2.40;;;;;;;;;;5059652;28;20055;-62
2021/12/21 00:29:33;;;;;;;7.67;3.17;;;;;;;;;;5055176;28;20144;-63
2021/12/21 00:31:59;;;;;;;3.57;2.37;;;;;;;;;;5061085;28;20045;-63
2021/12/21 00:34:26;;;;;;;6.15;2.10;;;;;;;;;;5056262;28;20052;-62
2021/12/21 00:36:59;;;;;;;5.80;2.60;;;;;;;;;;5058367;28;20132;-62
2021/12/21 00:39:26;;;;;;;5.63;2.67;;;;;;;;;;5055089;28;20049;-63
2021/12/21 00:41:52;;;;;;;6.40;2.53;;;;;;;;;;5052955;28;20059;-62
2021/12/21 00:44:19;;;;;;;6.78;2.75;;;;;;;;;;5055093;28;20461;-63
2021/12/21 00:46:45;;;;;;;6.60;2.90;;;;;;;;;;5054319;28;20815;-62
2021/12/21 00:49:16;;;;;;;6.07;2.73;;;;;;;;;;5055745;28;20068;-63
2021/12/21 00:51:44;;;;;;;7.90;2.93;;;;;;;;;;5059634;28;20327;-63
2021/12/21 00:54:11;;;;;;;5.87;2.47;;;;;;;;;;5056797;28;20080;-63
2021/12/21 00:56:37;;;;;;;11.13;2.58;;;;;;;;;;5056783;28;20515;-63
2021/12/21 00:59:10;;;;;;;9.43;2.97;;;;;;;;;;5059011;28;20132;-63
2021/12/21 01:01:37;;;;;;;4.33;2.63;;;;;;;;;;5060895;28;20079;-63
2021/12/21 01:04:07;;;;;;;7.18;2.42;;;;;;;;;;5058425;28;20390;-62
2021/12/21 01:06:47;;;;;;;6.72;2.67;;;;;;;;;;5059556;28;20476;-63
2021/12/21 01:11:54;;;;;;;7.93;3.00;;;;;;;;;;5058453;28;20127;-63
2021/12/21 01:17:03;;;;;;;6.50;2.30;;;;;;;;;;5057163;28;20057;-63
2021/12/21 01:19:46;;;;;;;4.33;2.90;;;;;;;;;;5059029;28;20515;-63
2021/12/21 01:22:33;;;;;;;7.47;3.03;;;;;;;;;;5061194;28;20131;-62
2021/12/21 01:25:19;;;;;;;8.37;3.03;;;;;;;;;;5058205;28;20129;-62
2021/12/21 01:28:08;;;;;;;9.30;2.90;;;;;;;;;;5055928;28;20135;-62
2021/12/21 01:33:27;;;;;;;4.57;2.83;;;;;;;;;;5059823;28;20088;-62
2021/12/21 01:35:55;;;;;;;5.07;2.63;;;;;;;;;;5055813;28;20070;-62
2021/12/21 01:38:40;;;;;;;8.43;3.77;;;;;;;;;;5053176;28;20127;-62
2021/12/21 01:41:27;;;;;;;6.33;3.10;;;;;;;;;;5056125;28;20044;-63
2021/12/21 01:52:01;;;;;;;6.77;2.90;;;;;;;;;;5035631;28;20099;-63
2021/12/21 01:54:34;;;;;;;6.83;3.40;;;;;;;;;;5036236;28;20140;-62
2021/12/21 01:57:01;;;;;;;7.28;3.33;;;;;;;;;;5039011;28;20137;-62
2021/12/21 01:59:27;;;;;;;7.65;2.92;;;;;;;;;;5038297;28;20176;-62
2021/12/21 02:02:00;;;;;;;6.13;2.93;;;;;;;;;;5034255;28;20171;-62
2021/12/21 02:04:26;;;;;;;6.45;3.05;;;;;;;;;;5043799;28;20124;-62
2021/12/21 02:06:53;;;;;;;7.07;2.22;;;;;;;;;;5042491;28;20088;-62
2021/12/21 02:09:23;;;;;;;5.53;2.78;;;;;;;;;;5045440;28;20068;-63
2021/12/21 02:11:49;;;;;;;6.37;3.87;;;;;;;;;;5041890;28;20068;-62
2021/12/21 02:14:16;;;;;;;13.80;5.90;;;;;;;;;;5039742;28;20128;-62
2021/12/21 02:17:04;;;;;;;12.65;6.20;;;;;;;;;;5042656;28;20052;-62
2021/12/21 02:19:38;;;;;;;11.13;5.93;;;;;;;;;;5041119;28;21701;-62
2021/12/21 02:22:18;;;;;;;9.97;5.30;;;;;;;;;;5040942;28;20448;-62
2021/12/21 02:24:59;;;;;;;9.13;4.90;;;;;;;;;;5041832;28;20195;-62
2021/12/21 02:27:27;;;;;;;7.63;4.40;;;;;;;;;;5035571;28;20521;-62
2021/12/21 02:29:53;;;;;;;12.23;4.70;;;;;;;;;;5039797;28;20477;-62
2021/12/21 02:32:22;;;;;;;7.45;4.03;;;;;;;;;;5040184;28;20563;-62
2021/12/21 02:34:49;;;;;;;8.83;3.90;;;;;;;;;;5038334;28;20060;-62
2021/12/21 02:37:16;;;;;;;6.80;3.10;;;;;;;;;;5032603;28;20056;-63
2021/12/21 02:39:42;;;;;;;7.35;3.42;;;;;;;;;;5033313;28;20053;-63
2021/12/21 02:42:08;;;;;;;6.22;3.10;;;;;;;;;;5054234;28;20048;-62
2021/12/21 02:44:37;;;;;;;7.80;3.60;;;;;;;;;;5076914;28;20076;-62
2021/12/21 02:47:04;;;;;;;9.40;3.80;;;;;;;;;;5079541;28;20040;-62
2021/12/21 02:49:31;;;;;;;8.00;3.65;;;;;;;;;;5080063;28;20147;-62
2021/12/21 02:51:58;;;;;;;4.32;2.28;;;;;;;;;;5080406;28;20064;-62
2021/12/21 02:54:24;;;;;;;4.50;2.57;;;;;;;;;;5080261;28;20076;-62
2021/12/21 02:56:57;;;;;;;6.87;3.37;;;;;;;;;;5081897;28;20139;-62
2021/12/21 02:59:23;;;;;;;11.48;3.17;;;;;;;;;;5082374;28;20210;-62
2021/12/21 03:01:50;;;;;;;4.88;2.97;;;;;;;;;;5080063;28;20076;-62
2021/12/21 03:04:23;;;;;;;4.70;2.70;;;;;;;;;;5079554;28;20472;-62
2021/12/21 03:11:56;;;;;;;7.83;2.97;;;;;;;;;;5085182;28;20559;-62
2021/12/21 03:14:27;;;;;;;4.37;2.87;;;;;;;;;;5082001;28;20479;-62
2021/12/21 03:17:00;;;;;;;6.43;2.90;;;;;;;;;;5080205;28;20071;-62
2021/12/21 03:19:26;;;;;;;3.20;1.98;;;;;;;;;;5078393;28;20140;-62
2021/12/21 03:21:53;;;;;;;3.78;2.13;;;;;;;;;;5080745;28;20482;-62
2021/12/21 03:24:26;;;;;;;4.90;2.77;;;;;;;;;;5077995;28;20080;-62
2021/12/21 03:26:52;;;;;;;5.03;3.15;;;;;;;;;;5080287;28;20135;-62
2021/12/21 03:29:19;;;;;;;3.70;2.33;;;;;;;;;;5076547;28;20114;-62
2021/12/21 03:31:52;;;;;;;9.93;3.43;;;;;;;;;;5076875;28;20134;-62
2021/12/21 03:34:19;;;;;;;3.35;2.25;;;;;;;;;;5078581;28;20133;-62
2021/12/21 03:36:46;;;;;;;7.45;3.15;;;;;;;;;;5079576;28;20131;-62
2021/12/21 03:39:19;;;;;;;5.17;2.70;;;;;;;;;;5084005;28;20139;-62
2021/12/21 03:41:48;;;;;;;9.20;3.67;;;;;;;;;;5080065;28;20061;-62
2021/12/21 03:44:18;;;;;;;6.53;3.40;;;;;;;;;;5081628;28;20052;-62
2021/12/21 03:46:51;;;;;;;5.50;3.03;;;;;;;;;;5076719;28;20080;-62
2021/12/21 03:49:51;;;;;;;7.00;3.17;;;;;;;;;;5079241;28;20534;-62
2021/12/21 03:52:11;;;;;;;9.02;3.20;;;;;;;;;;5081918;28;20127;-62
2021/12/21 03:54:41;;;;;;;6.70;2.83;;;;;;;;;;5079740;28;20154;-62
2021/12/21 03:57:07;;;;;;;6.03;3.30;;;;;;;;;;5079455;28;20559;-62
2021/12/21 03:59:34;;;;;;;5.55;3.05;;;;;;;;;;5080926;28;20463;-62
2021/12/21 04:02:00;;;;;;;3.85;2.22;;;;;;;;;;5078688;28;20131;-62
2021/12/21 04:04:27;;;;;;;4.45;2.75;;;;;;;;;;5083677;28;20166;-62
2021/12/21 04:06:53;;;;;;;5.35;3.08;;;;;;;;;;5078495;28;20138;-62
2021/12/21 04:09:20;;;;;;;8.13;3.50;;;;;;;;;;5077709;28;20044;-62
2021/12/21 04:11:46;;;;;;;10.50;3.07;;;;;;;;;;5079137;28;20123;-62
2021/12/21 04:14:13;;;;;;;7.00;2.90;;;;;;;;;;5080388;28;20385;-62
2021/12/21 04:16:42;;;;;;;5.13;2.67;;;;;;;;;;5078627;28;20055;-62
2021/12/21 04:19:13;;;;;;;5.50;2.50;;;;;;;;;;5081380;28;20122;-62
2021/12/21 04:21:40;;;;;;;8.93;2.87;;;;;;;;;;5078426;28;20086;-62
2021/12/21 04:24:08;;;;;;;4.97;2.63;;;;;;;;;;5080008;28;20131;-62
2021/12/21 04:26:35;;;;;;;6.65;2.05;;;;;;;;;;5082437;28;20599;-62
2021/12/21 04:29:01;;;;;;;6.55;2.20;;;;;;;;;;5078049;28;20150;-62
2021/12/21 04:31:29;;;;;;;5.33;2.73;;;;;;;;;;5085270;28;20046;-62
2021/12/21 04:33:55;;;;;;;4.63;3.00;;;;;;;;;;5056331;28;20131;-62
2021/12/21 04:36:22;;;;;;;5.43;2.60;;;;;;;;;;5078008;28;20630;-62
2021/12/21 04:38:57;;;;;;;7.23;3.03;;;;;;;;;;5060568;28;20132;-62
2021/12/21 04:41:37;;;;;;;5.00;3.07;;;;;;;;;;5074751;28;20503;-62
2021/12/21 04:44:27;;;;;;;6.50;2.90;;;;;;;;;;5054879;28;20136;-62
2021/12/21 04:46:54;;;;;;;7.68;3.38;;;;;;;;;;5057777;28;20064;-62
2021/12/21 04:49:21;;;;;;;7.57;2.65;;;;;;;;;;5058828;28;20053;-62
2021/12/21 04:51:47;;;;;;;4.45;2.42;;;;;;;;;;5053902;28;20485;-62
2021/12/21 04:54:14;;;;;;;4.87;1.90;;;;;;;;;;5058714;28;20151;-62
2021/12/21 04:56:41;;;;;;;;;;;;;;;;;;5059495;28;20291;-62
2021/12/21 04:59:07;;;;;;;7.70;3.17;;;;;;;;;;5057418;28;20015;-62
2021/12/21 05:01:34;;;;;;;6.10;3.27;;;;;;;;;;5057849;28;20139;-62
2021/12/21 05:04:07;;;;;;;12.73;3.27;;;;;;;;;;5047283;28;20045;-62
2021/12/21 05:06:33;;;;;;;5.07;3.10;;;;;;;;;;5059964;28;20068;-62
2021/12/21 05:09:13;;;;;;;3.88;2.33;;;;;;;;;;5056056;28;20305;-62
2021/12/21 05:11:44;;;;;;;5.40;3.10;;;;;;;;;;5085767;28;20139;-62
2021/12/21 05:14:10;;;;;;;5.57;3.23;;;;;;;;;;5079568;28;20052;-62
2021/12/21 05:16:37;;;;;;;6.30;3.30;;;;;;;;;;5078937;28;20907;-62
2021/12/21 05:19:06;;;;;;;12.83;3.00;;;;;;;;;;5083693;28;20138;-62
2021/12/21 05:21:33;;;;;;;5.87;3.00;;;;;;;;;;5079699;28;20054;-62
2021/12/21 05:23:59;;;;;;;7.55;3.60;;;;;;;;;;5083226;28;20174;-62
2021/12/21 05:26:32;;;;;;;8.50;2.93;;;;;;;;;;5057119;28;20052;-63
2021/12/21 05:28:59;;;;;;;5.38;2.63;;;;;;;;;;5062148;28;20140;-62
2021/12/21 05:31:26;;;;;;;6.63;3.05;;;;;;;;;;5055155;28;20045;-63
2021/12/21 05:33:54;;;;;;;6.00;3.37;;;;;;;;;;5058341;28;20135;-62
2021/12/21 05:36:21;;;;;;;5.43;3.30;;;;;;;;;;5060481;28;20065;-62
2021/12/21 05:38:51;;;;;;;6.80;3.72;;;;;;;;;;5058643;28;20049;-62
2021/12/21 05:41:28;;;;;;;9.03;4.07;;;;;;;;;;5054378;28;20148;-62
2021/12/21 05:43:56;;;;;;;6.35;2.58;;;;;;;;;;5059319;28;20136;-63
2021/12/21 05:46:22;;;;;;;;;;;;;;;;;;5058757;28;20135;-62
2021/12/21 05:48:51;;;;;;;7.43;3.53;;;;;;;;;;5055387;28;20026;-62
2021/12/21 05:51:18;;;;;;;9.10;3.50;;;;;;;;;;5057516;28;20045;-62
2021/12/21 05:53:52;;;;;;;7.27;3.90;;;;;;;;;;5082231;28;20051;-62
2021/12/21 05:56:18;;;;;;;8.63;3.63;;;;;;;;;;5083475;28;20134;-62
2021/12/21 05:58:45;;;;;;;7.30;3.90;;;;;;;;;;5084940;28;20393;-62
2021/12/21 06:01:12;;;;;;;8.30;3.85;;;;;;;;;;5075574;28;20052;-63
2021/12/21 06:03:38;;;;;;;11.40;4.47;;;;;;;;;;5074816;28;20058;-63
2021/12/21 06:06:11;;;;;;;8.05;2.55;;;;;;;;;;5074460;28;20052;-63
2021/12/21 06:08:38;;;;;;;7.47;3.90;;;;;;;;;;5075822;28;20078;-62
2021/12/21 06:11:09;;;;;;;8.83;3.73;;;;;;;;;;5073126;28;20044;-62
2021/12/21 06:27:39;;;;;;;8.20;3.80;;;;;;;;;;5060181;28;20049;-62
2021/12/21 06:30:06;;;;;;;9.32;3.30;;;;;;;;;;5057413;28;20460;-62
2021/12/21 06:32:34;;;;;;;9.50;3.80;;;;;;;;;;5058490;28;20054;-62
2021/12/21 06:35:03;;;;;;;5.80;3.27;;;;;;;;;;5053011;28;20428;-62
2021/12/21 06:37:30;;;;;;;9.38;3.97;;;;;;;;;;5051510;28;20481;-63
2021/12/21 06:39:56;;;;;;;5.60;2.60;;;;;;;;;;5052108;28;20556;-62
2021/12/21 06:42:30;;;;;;;6.03;3.80;;;;;;;;;;5058313;28;20115;-62
2021/12/21 06:45:00;;;;;;;7.73;3.60;;;;;;;;;;5057331;28;20058;-62
2021/12/21 06:52:57;;;;;;;10.30;3.50;;;;;;;;;;5059749;28;20455;-62
2021/12/21 06:55:23;;;;;;;5.68;2.65;;;;;;;;;;5058314;28;20072;-63
2021/12/21 06:57:50;;;;;;;4.23;2.40;;;;;;;;;;5061378;28;20098;-62
2021/12/21 07:00:20;;;;;;;7.23;3.17;;;;;;;;;;5059340;28;20145;-62
2021/12/21 07:02:47;;;;;;;10.82;3.92;;;;;;;;;;5067620;28;20147;-62
2021/12/21 07:05:14;;;;;;;13.02;3.15;;;;;;;;;;5062968;28;20053;-63
2021/12/21 07:07:42;;;;;;;6.30;3.10;;;;;;;;;;5059543;28;20481;-62
2021/12/21 07:10:13;;;;;;;14.15;4.68;;;;;;;;;;5061252;28;20135;-62
2021/12/21 07:20:36;;;;;;;5.73;3.07;;;;;;;;;;5058463;28;20499;-62
2021/12/21 07:23:03;;;;;;;6.85;3.08;;;;;;;;;;5057149;28;20135;-62
2021/12/21 07:25:30;;;;;;;9.82;3.80;;;;;;;;;;5057791;28;20576;-62
2021/12/21 07:28:03;;;;;;;11.70;3.40;;;;;;;;;;5060905;28;20408;-62
2021/12/21 07:30:30;;;;;;;3.97;2.47;;;;;;;;;;5058586;28;20132;-62
2021/12/21 07:32:56;;;;;;;8.07;3.30;;;;;;;;;;5060368;28;20385;-62
2021/12/21 07:35:24;;;;;;;7.13;3.60;;;;;;;;;;5063442;28;20045;-62
2021/12/21 07:37:50;;;;;;;5.37;2.53;;;;;;;;;;5062319;28;20574;-62
2021/12/21 07:40:17;;;;;;;5.33;2.83;;;;;;;;;;5060092;28;20141;-62
2021/12/21 07:42:43;;;;;;;6.93;2.92;;;;;;;;;;5058457;28;20562;-63
2021/12/21 07:45:10;;;;;;;6.60;3.33;;;;;;;;;;5059516;28;20139;-62
2021/12/21 07:47:37;;;;;;;4.82;2.58;;;;;;;;;;5057243;28;20377;-62
2021/12/21 07:50:08;;;;;;;8.37;3.50;;;;;;;;;;5064573;28;20500;-62
2021/12/21 07:52:35;;;;;;;3.65;2.05;;;;;;;;;;5064178;28;20052;-62
2021/12/21 07:55:07;;;;;;;7.55;3.10;;;;;;;;;;5061253;28;20131;-62
2021/12/21 07:57:37;;;;;;;5.77;3.00;;;;;;;;;;5057928;28;20574;-62
2021/12/21 08:00:05;;;;;;;4.90;2.63;;;;;;;;;;5060045;28;20107;-62
2021/12/21 08:02:32;;;;;;;5.13;3.20;;;;;;;;;;5059698;28;20326;-62
2021/12/21 08:05:05;;;;;;;7.40;3.17;;;;;;;;;;5060019;28;20052;-62
2021/12/21 08:07:36;;;;;;;5.87;2.93;;;;;;;;;;5058965;28;20080;-63
2021/12/21 08:10:17;;;;;;;6.03;3.00;;;;;;;;;;5055956;28;20175;-62
2021/12/21 08:12:44;;;;;;;5.73;3.03;;;;;;;;;;5060443;28;20049;-62
2021/12/21 08:15:14;;;;;;;4.83;2.70;;;;;;;;;;5064436;28;20722;-62
2021/12/21 08:17:41;;;;;;;4.20;2.38;;;;;;;;;;5057556;28;20544;-62
2021/12/21 08:20:07;;;;;;;6.18;2.83;;;;;;;;;;5059717;28;20072;-62
2021/12/21 08:22:35;;;;;;;7.83;3.40;;;;;;;;;;5059380;28;20131;-62
2021/12/21 08:25:02;;;;;;;7.80;2.53;;;;;;;;;;5058381;28;20132;-62
2021/12/21 08:27:28;;;;;;;5.80;3.20;;;;;;;;;;5060339;28;20127;-62
2021/12/21 08:29:55;;;;;;;5.70;2.17;;;;;;;;;;5058105;28;20488;-62
2021/12/21 08:32:22;;;;;;;4.68;2.33;;;;;;;;;;5061636;28;20051;-62
2021/12/21 08:34:48;;;;;;;7.88;3.58;;;;;;;;;;5059118;28;20044;-62
2021/12/21 08:37:15;;;;;;;6.72;3.25;;;;;;;;;;5059780;28;20131;-62
2021/12/21 08:39:42;;;;;;;5.90;2.80;;;;;;;;;;5059552;28;20151;-62
2021/12/21 08:42:12;;;;;;;3.70;2.30;;;;;;;;;;5061545;28;20136;-62
2021/12/21 08:44:40;;;;;;;5.10;3.10;;;;;;;;;;5060846;28;20041;-62
2021/12/21 08:47:06;;;;;;;6.13;2.92;;;;;;;;;;5054788;28;20539;-62
2021/12/21 08:49:33;;;;;;;4.68;3.10;;;;;;;;;;5062423;28;20048;-62
2021/12/21 08:52:00;;;;;;;5.32;3.00;;;;;;;;;;5055849;28;20103;-62
2021/12/21 08:54:26;;;;;;;6.73;2.93;;;;;;;;;;5044048;28;20129;-62
2021/12/21 08:56:52;;;;;;;6.03;2.97;;;;;;;;;;5057401;28;20801;-62
2021/12/21 08:59:19;;;;;;;6.30;3.30;;;;;;;;;;5061843;28;20123;-62
2021/12/21 09:01:46;;;;;;;4.90;2.70;;;;;;;;;;5063950;28;20684;-62
2021/12/21 09:04:15;;;;;;;7.88;2.38;;;;;;;;;;5057513;28;20123;-62
2021/12/21 09:06:42;;;;;;;5.40;3.53;;;;;;;;;;5057301;28;20120;-62
2021/12/21 09:09:08;;;;;;;5.72;3.47;;;;;;;;;;5061632;28;20499;-62
2021/12/21 09:11:35;;;;;;;3.83;2.37;;;;;;;;;;5053474;28;20135;-62
2021/12/21 09:14:08;;;;;;;5.40;3.03;;;;;;;;;;5062971;28;20052;-62
2021/12/21 09:16:35;;;;;;;6.60;2.90;;;;;;;;;;5053165;28;20087;-62
2021/12/21 09:19:02;;;;;;;6.73;3.07;;;;;;;;;;5062713;28;20072;-62
2021/12/21 09:21:30;;;;;;;5.93;3.10;;;;;;;;;;5063754;28;20103;-62
2021/12/21 09:23:56;;;;;;;6.68;3.25;;;;;;;;;;5057431;28;20084;-62
2021/12/21 09:26:23;;;;;;;6.77;3.33;;;;;;;;;;5059880;28;20428;-63
2021/12/21 09:28:49;;;;;;;6.32;2.95;;;;;;;;;;5063360;28;20123;-62
2021/12/21 09:31:17;;;;;;;3.17;2.17;;;;;;;;;;5037719;28;20543;-62
2021/12/21 09:33:44;;;;;;;5.25;3.20;;;;;;;;;;5058319;28;20107;-62
2021/12/21 09:36:11;;;;;;;4.53;2.70;;;;;;;;;;5057394;28;20052;-62
2021/12/21 09:38:38;;;;;;;4.38;2.72;;;;;;;;;;5055532;28;20055;-62
2021/12/21 09:41:05;;;;;;;6.43;3.00;;;;;;;;;;5056485;28;20087;-63
2021/12/21 09:43:42;;;;;;;;;;;;;;;;;;5057729;28;20053;-62
2021/12/21 09:46:09;;;;;;;7.55;3.60;;;;;;;;;;5061205;28;20019;-62
2021/12/21 09:48:36;;;;;;;4.00;2.58;;;;;;;;;;5062935;28;20049;-62
2021/12/21 09:51:03;;;;;;;6.88;2.92;;;;;;;;;;5056653;28;20131;-62
2021/12/21 09:53:30;;;;;;;3.67;2.63;;;;;;;;;;5058058;28;20471;-63
2021/12/21 09:55:56;;;;;;;;;;;;;;;;;;5060964;28;20156;-62
2021/12/21 09:58:23;;;;;;;5.40;2.90;;;;;;;;;;5059363;28;20459;-62
2021/12/21 10:00:49;;;;;;;6.40;3.35;;;;;;;;;;5052323;28;20167;-62
2021/12/21 10:03:17;;;;;;;6.95;3.38;;;;;;;;;;5060786;28;20064;-62
2021/12/21 10:05:43;;;;;;;;;;;;;;;;;;5058433;28;20052;-62
2021/12/21 10:08:10;;;;;;;4.35;3.03;;;;;;;;;;5052988;28;19979;-62
2021/12/21 10:10:38;;;;;;;7.83;3.90;;;;;;;;;;5058911;28;20087;-62
2021/12/21 10:13:07;;;;;;;8.82;3.60;;;;;;;;;;5059383;28;20508;-62
2021/12/21 10:15:37;;;;;;;9.18;3.70;;;;;;;;;;5061639;28;20080;-62
2021/12/21 10:18:03;;;;;;;8.00;3.53;;;;;;;;;;5062628;28;20131;-62
2021/12/21 10:20:38;;;;;;;5.45;3.13;;;;;;;;;;5063686;28;20057;-62
2021/12/21 10:23:24;;;;;;;6.50;3.15;;;;;;;;;;5055758;28;20073;-62
2021/12/21 10:25:58;;;;;;;5.68;3.50;;;;;;;;;;5060143;28;20087;-62
2021/12/21 10:28:26;;;;;;;6.65;2.88;;;;;;;;;;5062385;28;20500;-63
2021/12/21 10:30:53;;;;;;;6.72;3.25;;;;;;;;;;5064994;28;20170;-63
2021/12/21 10:33:21;;;;;;;7.68;3.22;;;;;;;;;;5059189;28;20135;-62
2021/12/21 10:35:47;;;;;;;9.82;3.38;;;;;;;;;;5062325;28;20592;-63
2021/12/21 10:38:31;;;;;;;5.13;3.00;;;;;;;;;;5060743;28;20467;-62
2021/12/21 10:41:18;;;;;;;4.30;2.83;;;;;;;;;;5064906;28;20047;-62
2021/12/21 10:44:00;;;;;;;4.97;3.10;;;;;;;;;;5060503;28;20154;-62
2021/12/21 10:46:28;;;;;;;7.63;3.25;;;;;;;;;;5062677;28;20049;-62
2021/12/21 10:48:54;;;;;;;;;;;;;;;;;;5064029;28;20088;-62
2021/12/21 10:51:23;;;;;;;8.00;3.25;;;;;;;;;;5065169;28;19972;-62
2021/12/21 10:53:49;;;;;;;8.68;3.13;;;;;;;;;;5058123;28;20049;-62
2021/12/21 10:56:19;;;;;;;8.05;3.35;;;;;;;;;;5058273;28;20057;-62
2021/12/21 10:58:46;;;;;;;7.22;3.40;;;;;;;;;;5063366;28;20068;-63
2021/12/21 11:01:14;;;;;;;9.20;2.95;;;;;;;;;;5056972;28;20096;-62
2021/12/21 11:03:50;;;;;;;6.95;3.65;;;;;;;;;;5062838;28;20140;-62
2021/12/21 11:06:26;;;;;;;6.63;3.30;;;;;;;;;;5066253;28;20114;-63
2021/12/21 11:08:54;;;;;;;8.40;3.33;;;;;;;;;;5059753;28;20488;-62
2021/12/21 11:11:22;;;;;;;6.47;2.45;;;;;;;;;;5062318;28;20080;-62
2021/12/21 11:14:08;;;;;;;6.72;2.92;;;;;;;;;;5063479;28;20123;-62
2021/12/21 11:16:43;;;;;;;7.07;2.70;;;;;;;;;;5057525;28;20131;-62
2021/12/21 11:19:10;;;;;;;7.05;2.65;;;;;;;;;;5058737;28;20080;-62
2021/12/21 11:21:36;;;;;;;;;;;;;;;;;;5063827;28;20128;-62
2021/12/21 11:24:06;;;;;;;8.75;2.90;;;;;;;;;;5066336;28;20027;-63
2021/12/21 11:26:33;;;;;;;6.35;2.65;;;;;;;;;;5061077;28;20523;-62
2021/12/21 11:29:07;;;;;;;5.68;2.65;;;;;;;;;;5060897;28;20492;-62
2021/12/21 11:31:36;;;;;;;5.82;2.47;;;;;;;;;;5052043;28;20135;-62
2021/12/21 11:34:05;;;;;;;5.22;2.05;;;;;;;;;;5055466;28;20532;-62
2021/12/21 11:39:30;;;;;;;6.28;2.47;;;;;;;;;;5059366;28;20120;-63
2021/12/21 11:42:04;;;;;;;10.88;2.75;;;;;;;;;;5064355;27;20057;-62
2021/12/21 11:44:50;;;;;;;5.43;2.35;;;;;;;;;;5057848;28;20416;-63
2021/12/21 11:47:18;;;;;;;4.25;2.30;;;;;;;;;;5057203;28;20131;-63
2021/12/21 11:49:54;;;;;;;8.65;2.70;;;;;;;;;;5058289;28;20052;-63
2021/12/21 11:52:23;;;;;;;5.47;2.47;;;;;;;;;;5061515;28;20123;-62
2021/12/21 11:54:51;;;;;;;5.13;2.55;;;;;;;;;;5057896;28;20469;-62
2021/12/21 11:57:36;;;;;;;4.03;2.05;;;;;;;;;;5057697;28;20094;-62
2021/12/21 12:00:12;;;;;;;5.28;2.60;;;;;;;;;;5057218;28;20527;-63
2021/12/21 12:02:43;;;;;;;3.65;2.28;;;;;;;;;;5054913;28;20453;-62
2021/12/21 12:05:29;;;;;;;5.57;2.65;;;;;;;;;;5056301;28;20040;-62
2021/12/21 12:08:02;;;;;;;10.50;2.70;;;;;;;;;;5062163;28;20151;-63
2021/12/21 12:10:29;;;;;;;4.78;2.50;;;;;;;;;;5059835;28;20124;-63
2021/12/21 12:13:06;;;;;;;4.63;2.30;;;;;;;;;;5060612;28;20784;-63
2021/12/21 12:15:40;;;;;;;4.30;2.30;;;;;;;;;;5059621;28;20079;-63
2021/12/21 12:18:17;;;;;;;5.35;2.40;;;;;;;;;;5056948;28;20131;-62
2021/12/21 12:20:43;;;;;;;7.47;2.80;;;;;;;;;;5061481;28;20123;-63
2021/12/21 12:23:11;;;;;;;3.63;2.30;;;;;;;;;;5058476;28;20049;-63
2021/12/21 12:25:37;;;;;;;6.20;2.40;;;;;;;;;;5059008;28;20085;-63
2021/12/21 12:28:06;;;;;;;8.13;2.17;;;;;;;;;;5063861;28;20071;-63
2021/12/21 12:30:33;;;;;;;6.18;2.45;;;;;;;;;;5085022;28;20100;-63
2021/12/21 12:33:02;;;;;;;8.70;2.28;;;;;;;;;;5077668;28;20828;-63
2021/12/21 12:35:36;;;;;;;5.72;2.10;;;;;;;;;;5080209;28;20048;-63
2021/12/21 12:38:16;;;;;;;4.25;2.33;;;;;;;;;;5080335;28;20040;-63
2021/12/21 12:40:46;;;;;;;6.22;2.03;;;;;;;;;;5061661;28;20453;-63
2021/12/21 12:43:18;;;;;;;3.60;2.15;;;;;;;;;;5059503;28;20103;-63
2021/12/21 12:45:45;;;;;;;4.85;2.30;;;;;;;;;;5063443;28;20045;-63
2021/12/21 12:48:12;;;;;;;;;;;;;;;;;;5061660;28;20048;-62
2021/12/21 12:50:39;;;;;;;3.45;1.90;;;;;;;;;;5067074;28;19924;-63
2021/12/21 12:53:07;;;;;;;5.45;1.80;;;;;;;;;;5062115;28;20052;-63
2021/12/21 12:55:36;;;;;;;2.53;1.88;;;;;;;;;;5058357;28;20053;-63
2021/12/21 12:58:24;;;;;;;4.65;2.70;;;;;;;;;;5059263;28;20037;-63
2021/12/21 13:01:03;;;;;;;5.20;2.35;;;;;;;;;;5057097;28;20091;-63
2021/12/21 13:03:43;;;;;;;6.82;2.42;;;;;;;;;;5060001;28;20045;-63
2021/12/21 13:06:23;;;;;;;5.10;2.03;;;;;;;;;;5060372;28;20091;-63
2021/12/21 13:08:49;;;;;;;5.82;2.53;;;;;;;;;;5079316;28;20072;-63
2021/12/21 13:11:21;;;;;;;2.45;1.70;;;;;;;;;;5076000;28;20167;-63
2021/12/21 13:13:49;;;;;;;4.75;2.10;;;;;;;;;;5079626;28;20131;-63
2021/12/21 13:16:17;;;;;;;4.60;2.28;;;;;;;;;;5080960;28;20083;-63
2021/12/21 13:18:44;;;;;;;7.65;2.10;;;;;;;;;;5080645;28;20062;-63
2021/12/21 13:21:37;;;;;;;10.70;2.78;;;;;;;;;;5076531;28;20110;-63
2021/12/21 13:24:05;;;;;;;7.70;2.72;;;;;;;;;;5069398;28;20056;-63
2021/12/21 13:26:39;;;;;;;5.68;2.40;;;;;;;;;;5080328;28;20088;-63
2021/12/21 13:29:07;;;;;;;4.25;1.92;;;;;;;;;;5076310;28;20080;-63
2021/12/21 13:31:34;;;;;;;6.70;2.20;;;;;;;;;;5078531;28;20135;-63
2021/12/21 13:34:01;;;;;;;7.07;2.20;;;;;;;;;;5077624;28;20142;-63
2021/12/21 13:36:37;;;;;;;2.80;2.05;;;;;;;;;;5080971;28;20515;-63
2021/12/21 13:39:23;;;;;;;3.38;1.70;;;;;;;;;;5079336;28;20076;-63
2021/12/21 13:41:50;;;;;;;4.32;2.10;;;;;;;;;;5080685;28;20135;-63
2021/12/21 13:44:23;;;;;;;4.78;2.10;;;;;;;;;;5077199;28;20044;-63
2021/12/21 13:46:50;;;;;;;2.90;1.67;;;;;;;;;;5077665;28;20132;-63
2021/12/21 13:49:37;;;;;;;5.40;2.10;;;;;;;;;;5080402;28;20500;-63
2021/12/21 13:52:03;;;;;;;2.87;1.53;;;;;;;;;;5082608;28;20087;-63
2021/12/21 13:54:30;;;;;;;5.05;2.17;;;;;;;;;;5085441;28;20329;-63
2021/12/21 13:56:57;;;;;;;5.15;2.55;;;;;;;;;;5084442;28;20127;-63
2021/12/21 13:59:23;;;;;;;4.80;2.10;;;;;;;;;;5083031;28;20067;-63
2021/12/21 14:01:53;;;;;;;5.07;2.13;;;;;;;;;;5078581;28;20891;-63
2021/12/21 14:04:27;;;;;;;3.25;2.08;;;;;;;;;;5084158;28;20095;-63
2021/12/21 14:06:54;;;;;;;9.13;2.65;;;;;;;;;;5078565;28;20052;-63
2021/12/21 14:09:21;;;;;;;5.55;2.22;;;;;;;;;;5063901;28;20075;-63
2021/12/21 14:11:52;;;;;;;5.88;2.50;;;;;;;;;;5080537;28;20045;-63
2021/12/21 14:14:19;;;;;;;6.28;2.40;;;;;;;;;;5081931;28;20086;-63
2021/12/21 14:16:46;;;;;;;3.72;2.33;;;;;;;;;;5079537;28;20135;-63
2021/12/21 14:19:17;;;;;;;5.35;2.20;;;;;;;;;;5077789;28;20159;-63
2021/12/21 14:21:44;;;;;;;11.30;2.53;;;;;;;;;;5080758;28;20117;-63
2021/12/21 14:24:20;;;;;;;7.15;2.25;;;;;;;;;;5080300;28;20496;-63
2021/12/21 14:26:52;;;;;;;7.75;2.50;;;;;;;;;;5087177;28;20179;-63
2021/12/21 14:29:23;;;;;;;3.63;2.40;;;;;;;;;;5086580;28;20143;-63
2021/12/21 14:32:13;;;;;;;3.97;2.05;;;;;;;;;;5083582;28;20640;-63
2021/12/21 14:34:50;;;;;;;3.80;2.28;;;;;;;;;;5083340;28;20040;-63
2021/12/21 14:37:18;;;;;;;3.47;1.98;;;;;;;;;;5076543;28;20079;-63
2021/12/21 14:39:46;;;;;;;8.65;2.50;;;;;;;;;;5080671;28;20052;-63
2021/12/21 14:42:14;;;;;;;5.10;2.35;;;;;;;;;;5079129;28;20637;-63
2021/12/21 14:44:46;;;;;;;7.30;2.70;;;;;;;;;;5062104;28;20124;-63
2021/12/21 14:47:16;;;;;;;5.13;2.15;;;;;;;;;;5060731;28;20139;-63
2021/12/21 14:49:56;;;;;;;8.30;2.60;;;;;;;;;;5064113;28;20040;-63
2021/12/21 14:52:33;;;;;;;13.88;2.10;;;;;;;;;;5062538;28;20489;-63
2021/12/21 14:55:08;;;;;;;8.32;2.40;;;;;;;;;;5065467;28;20052;-63
2021/12/21 14:57:34;;;;;;;3.67;2.20;;;;;;;;;;5060427;28;20092;-63
2021/12/21 15:00:03;;;;;;;2.97;2.03;;;;;;;;;;5065171;28;20080;-63
2021/12/21 15:05:03;;;;;;;2.10;1.67;;;;;;;;;;5063667;28;20052;-63
2021/12/21 15:07:30;;;;;;;3.22;2.20;;;;;;;;;;5065313;28;20353;-63
2021/12/21 15:10:05;;;;;;;6.25;2.70;;;;;;;;;;5059727;28;20128;-63
2021/12/21 15:12:32;;;;;;;18.92;7.18;;;;;;;;;;5061234;28;20159;-63
2021/12/21 15:14:59;;;;;;;10.30;5.05;;;;;;;;;;5059750;28;20087;-63
2021/12/21 15:17:25;;;;;;;8.27;4.25;;;;;;;;;;5059799;28;20076;-63
2021/12/21 15:19:52;;;;;;;7.40;4.68;;;;;;;;;;5055086;28;20151;-63
2021/12/21 15:22:19;;;;;;;6.00;3.83;;;;;;;;;;5052443;28;20211;-63
2021/12/21 15:24:46;;;;;;;5.80;3.28;;;;;;;;;;5045291;28;20628;-63
2021/12/21 15:27:12;;;;;;;10.35;3.90;;;;;;;;;;5057066;28;20139;-63
2021/12/21 15:29:39;;;;;;;9.48;3.80;;;;;;;;;;5058051;28;20159;-63
2021/12/21 15:32:12;;;;;;;3.97;2.25;;;;;;;;;;5058474;28;20612;-63
2021/12/21 15:34:40;;;;;;;6.68;3.13;;;;;;;;;;5054207;28;20067;-63
2021/12/21 15:37:08;;;;;;;6.90;2.85;;;;;;;;;;5054135;28;20484;-63
2021/12/21 15:39:34;;;;;;;5.97;2.40;;;;;;;;;;5056665;28;20393;-63
2021/12/21 15:42:12;;;;;;;3.53;2.23;;;;;;;;;;5064657;28;20167;-63
2021/12/21 15:44:45;;;;;;;5.03;2.40;;;;;;;;;;5057295;28;20135;-63
2021/12/21 15:47:15;;;;;;;4.43;2.33;;;;;;;;;;5063747;28;20833;-63
2021/12/21 15:49:45;;;;;;;10.10;2.70;;;;;;;;;;5049897;28;20053;-63
2021/12/21 15:52:11;;;;;;;5.93;2.42;;;;;;;;;;5045284;28;20080;-63
2021/12/21 15:54:38;;;;;;;4.68;2.10;;;;;;;;;;5054700;28;20766;-63
2021/12/21 15:57:07;;;;;;;5.57;2.17;;;;;;;;;;5054692;28;20743;-63
2021/12/21 15:59:34;;;;;;;3.83;2.13;;;;;;;;;;5059445;28;20593;-63